Pagrindinis puslapis
METAR-TAF:

METAR-TAF

Oro uostai :

Marathon, Florida, Jungtinės Amerikos Valstijos

platuma: 24-43-33N, ilguma: 081-02-52W, Aukštis: 2 m

Dabartinis oras

Ataskaita buvo paskelbta 13 minutes, ne 12:53 UTC
Vėjas 14 kt iš Šiaurės/Šiaurės Rytų
Temperatūra 20°C
Drėgmė 68%
Slėgis 1021 hPa
Matomumas: 16.1 km
Giedras dangus

METAR: KMTH 211253Z AUTO 02014KT 10SM CLR 20/14 A3015 RMK AO2 SLP208 T02000139

Laikas: 08:06 (13:06 UTC)

Prognozė

Ataskaita buvo paskelbta 1 valandą ir 41 minutes, ne 11:25 UTC
Prognozė galioja nuo 21 metu 12 UTC su 22 metu 12 UTC
Vėjas 11 kt iš Šiaurės/Šiaurės Rytų su gūsio iki 18 kt
Matomumas: 10 km
Giedras dangus
Nuo 21 metu 2200 UTC
Vėjas 8 kt iš Šiaurės/Šiaurės Rytų
Matomumas: 10 km
Išsisklaidę debesys ne aukštis 4000 ft

TAF: KMTH 211125Z 2112/2212 02011G18KT P6SM SKC FM212200 03008KT P6SM SCT040

Orai ataskaitas ir orų prognozės (METAR, TAF).

turimą stotys yra geltonos ir raudonos taškus žemėlapyje.

Perkelti pele per norėdami pamatyti stoties vardą.

Tada spustelėkite, norėdami matyti oro stebėjimo ir prognozės.

Norėdami pakeisti žemėlapį: spustelėkite ant žalios mygtukų su juodo kryžiaus žemyn,; žalią mygtuką su brūkšneliu, jei norite nutolinti; arba žalių rodyklių gretimoms žemėlapius.


METAR-TAF: